Time;durP1;ratioP1;P1;durP2;ratioP2;P2;SDS_P1;SDS_P2;PMS_P1;PMS_P2;Temp;Humidity;BMP_temperature;BMP_pressure;BME280_temperature;BME280_humidity;BME280_pressure;Samples;Min_cycle;Max_cycle;Signal;HPM_P1;HPM_P2
2021/01/13 00:01:11;;;;;;;17.80;6.05;;;;;;;8.99;56.60;101667.06;4937688;28;20409;-85
2021/01/13 00:03:36;;;;;;;16.02;5.47;;;;;;;9.25;56.29;101678.69;4972904;28;20026;-85
2021/01/13 00:06:02;;;;;;;19.58;10.75;;;;;;;9.25;56.21;101678.69;4962814;28;20606;-85
2021/01/13 00:08:27;;;;;;;14.35;5.07;;;;;;;9.22;56.02;101672.72;4973302;28;20053;-85
2021/01/13 00:10:53;;;;;;;13.43;7.88;;;;;;;9.28;55.97;101674.78;4955951;28;20031;-84
2021/01/13 00:13:18;;;;;;;16.55;8.45;;;;;;;9.15;56.13;101658.97;4997573;28;20117;-85
2021/01/13 00:15:44;;;;;;;22.48;10.63;;;;;;;9.01;56.71;101663.19;4986901;28;20030;-84
2021/01/13 00:18:11;;;;;;;13.30;5.60;;;;;;;8.74;57.14;101639.88;4949680;28;20610;-83
2021/01/13 00:20:36;;;;;;;25.80;6.85;;;;;;;8.95;56.49;101636.72;4987110;28;20042;-86
2021/01/13 00:23:02;;;;;;;18.42;7.03;;;;;;;8.94;56.78;101652.16;4989767;28;20504;-86
2021/01/13 00:25:27;;;;;;;17.48;5.82;;;;;;;8.91;56.75;101638.06;4975682;28;20046;-85
2021/01/13 00:27:52;;;;;;;14.23;5.60;;;;;;;8.91;56.55;101632.63;4977285;28;20026;-87
2021/01/13 00:30:18;;;;;;;16.85;4.63;;;;;;;8.80;56.95;101643.81;4945541;28;20062;-83
2021/01/13 00:32:44;;;;;;;17.55;6.15;;;;;;;8.94;56.69;101643.16;4971622;28;20038;-85
2021/01/13 00:35:10;;;;;;;22.38;9.15;;;;;;;8.81;56.51;101640.94;4989225;28;20100;-85
2021/01/13 00:37:36;;;;;;;11.77;6.40;;;;;;;8.98;55.84;101635.56;4991299;28;20035;-84
2021/01/13 00:40:04;;;;;;;16.20;7.60;;;;;;;8.71;56.02;101630.22;4973857;28;20367;-85
2021/01/13 00:42:30;;;;;;;17.75;7.30;;;;;;;8.85;55.20;101633.31;4979704;28;20051;-85
2021/01/13 00:44:55;;;;;;;20.30;8.52;;;;;;;8.71;55.44;101641.06;4991362;28;20481;-84
2021/01/13 00:47:21;;;;;;;20.90;10.18;;;;;;;8.81;53.50;101630.06;4987340;28;20038;-86
2021/01/13 00:49:46;;;;;;;16.58;9.23;;;;;;;8.75;52.62;101636.16;4937870;28;20034;-85
2021/01/13 00:52:11;;;;;;;11.20;4.35;;;;;;;8.73;52.73;101633.63;4989881;28;20037;-85
2021/01/13 00:54:37;;;;;;;10.75;5.82;;;;;;;8.85;52.47;101642.31;4973145;28;20065;-83
2021/01/13 00:57:04;;;;;;;17.63;5.90;;;;;;;8.88;53.01;101630.25;4993801;28;20038;-86
2021/01/13 00:59:30;;;;;;;16.15;4.35;;;;;;;8.74;53.45;101623.59;4983428;28;20038;-83
2021/01/13 01:01:55;;;;;;;13.77;6.32;;;;;;;8.67;54.15;101625.31;4992710;28;20042;-84
2021/01/13 01:04:21;;;;;;;18.33;6.38;;;;;;;8.87;53.69;101626.69;4974671;28;20048;-84
2021/01/13 01:06:48;;;;;;;17.02;7.00;;;;;;;8.79;53.69;101632.13;4988397;28;20145;-86
2021/01/13 01:09:13;;;;;;;16.92;7.60;;;;;;;8.68;53.98;101622.44;4989471;28;20137;-86
2021/01/13 01:11:39;;;;;;;11.68;7.28;;;;;;;8.62;53.58;101611.38;4976402;28;20140;-87
2021/01/13 01:14:07;;;;;;;18.88;7.10;;;;;;;8.64;52.23;101621.03;4992013;28;20042;-89
2021/01/13 01:16:34;;;;;;;11.65;7.32;;;;;;;8.77;51.89;101626.00;4974955;28;20408;-89
2021/01/13 01:19:00;;;;;;;14.70;5.38;;;;;;;8.57;51.61;101614.56;4994731;28;20034;-87
2021/01/13 01:21:26;;;;;;;13.07;5.65;;;;;;;8.78;51.85;101623.13;4990862;28;20607;-88
2021/01/13 01:23:52;;;;;;;17.58;6.32;;;;;;;8.89;52.14;101632.81;4977347;28;20400;-86
2021/01/13 01:26:17;;;;;;;13.35;7.80;;;;;;;8.82;52.60;101623.66;4987454;28;20065;-89
2021/01/13 01:28:43;;;;;;;13.00;6.35;;;;;;;8.68;52.96;101614.28;4977141;28;20027;-86
2021/01/13 01:31:08;;;;;;;10.77;7.00;;;;;;;8.75;53.52;101614.47;4975512;28;20034;-90
2021/01/13 01:33:34;;;;;;;20.08;10.82;;;;;;;8.57;54.60;101612.72;4989445;28;20046;-85
2021/01/13 01:35:59;;;;;;;25.90;18.65;;;;;;;8.79;54.30;101615.84;4989420;28;20090;-91
2021/01/13 01:38:25;;;;;;;23.13;11.60;;;;;;;8.73;54.16;101611.09;4956630;28;20034;-87
2021/01/13 01:40:50;;;;;;;20.00;11.20;;;;;;;8.44;54.91;101615.03;4952981;28;20117;-84
2021/01/13 01:43:16;;;;;;;26.27;7.75;;;;;;;8.62;53.83;101635.75;4952600;28;20480;-87
2021/01/13 01:45:42;;;;;;;15.98;6.50;;;;;;;8.60;52.36;101615.13;4995222;28;20400;-86
2021/01/13 01:48:12;;;;;;;14.38;7.57;;;;;;;8.75;51.74;101637.00;4969265;28;20022;-85
2021/01/13 01:50:39;;;;;;;17.23;7.95;;;;;;;8.74;51.10;101635.31;4995475;28;20105;-89
2021/01/13 01:53:13;;;;;;;17.73;9.52;;;;;;;8.84;51.32;101634.34;4971140;28;20030;-89
2021/01/13 01:55:54;;;;;;;18.48;13.10;;;;;;;8.94;50.89;101630.47;4976616;28;20066;-87
2021/01/13 01:58:30;;;;;;;18.53;13.10;;;;;;;8.91;51.83;101635.34;4985929;28;20069;-85
2021/01/13 02:00:58;;;;;;;17.20;11.60;;;;;;;8.98;52.37;101643.69;4971941;28;20176;-87
2021/01/13 02:03:27;;;;;;;12.75;7.85;;;;;;;9.09;52.52;101637.94;4972248;28;20030;-86
2021/01/13 02:06:02;;;;;;;15.70;8.50;;;;;;;8.93;53.54;101649.63;4991765;28;20056;-84
2021/01/13 02:08:35;;;;;;;17.38;12.25;;;;;;;9.06;53.76;101654.56;4989083;28;20596;-84
2021/01/13 02:11:00;;;;;;;14.93;10.23;;;;;;;9.11;53.98;101649.47;4987711;28;20045;-86
2021/01/13 02:13:26;;;;;;;12.93;8.13;;;;;;;9.04;53.80;101651.16;4991150;28;20030;-83
2021/01/13 02:15:52;;;;;;;15.18;8.77;;;;;;;9.25;53.63;101643.41;4969339;28;20700;-84
2021/01/13 02:18:22;;;;;;;28.42;7.82;;;;;;;9.20;53.96;101629.47;4972711;28;20038;-87
2021/01/13 02:20:53;;;;;;;12.57;5.82;;;;;;;9.41;53.72;101641.72;4986377;28;20560;-88
2021/01/13 02:23:30;;;;;;;18.63;8.23;;;;;;;9.41;53.98;101652.59;4984638;28;20085;-86
2021/01/13 02:26:32;;;;;;;10.98;6.20;;;;;;;8.78;58.17;101695.50;4985305;28;20049;-86
2021/01/13 02:29:14;;;;;;;11.63;6.50;;;;;;;8.65;60.81;101678.81;4988530;28;20096;-85
2021/01/13 02:31:45;;;;;;;10.07;6.22;;;;;;;8.83;60.33;101676.03;4988794;28;20729;-85
2021/01/13 02:34:24;;;;;;;14.95;6.85;;;;;;;8.56;60.65;101676.09;4982885;28;20109;-85
2021/01/13 02:37:33;;;;;;;11.07;6.20;;;;;;;8.67;60.17;101677.66;4984239;28;20397;-85
2021/01/13 02:40:21;;;;;;;13.95;9.80;;;;;;;8.60;60.68;101665.75;4990158;28;20065;-83
2021/01/13 02:43:09;;;;;;;16.23;10.38;;;;;;;8.67;60.34;101666.81;4984703;28;20028;-83
2021/01/13 02:45:43;;;;;;;14.27;8.68;;;;;;;8.65;60.50;101667.97;4989959;28;20489;-85
2021/01/13 02:48:11;;;;;;;13.38;7.75;;;;;;;8.45;61.16;101662.84;4987344;28;20041;-84
2021/01/13 02:50:37;;;;;;;14.13;8.73;;;;;;;8.38;61.26;101657.16;4987738;28;20055;-84
2021/01/13 02:53:09;;;;;;;20.25;9.20;;;;;;;8.24;61.71;101658.59;4988497;28;20036;-83
2021/01/13 02:55:46;;;;;;;18.50;14.23;;;;;;;8.41;61.72;101666.84;4985429;28;20038;-83
2021/01/13 02:58:33;;;;;;;19.92;7.53;;;;;;;8.59;61.47;101681.19;4984099;28;20096;-84
2021/01/13 03:01:01;;;;;;;19.70;8.50;;;;;;;8.45;61.81;101699.91;4987224;28;20381;-87
2021/01/13 03:03:31;;;;;;;15.45;8.63;;;;;;;8.29;62.26;101681.69;4984185;28;20538;-86
2021/01/13 03:06:05;;;;;;;21.92;9.55;;;;;;;8.42;62.13;101673.97;4976493;28;20046;-86
2021/01/13 03:08:56;;;;;;;12.43;6.60;;;;;;;8.62;61.42;101662.88;4986858;28;20034;-84
2021/01/13 03:11:22;;;;;;;17.08;4.07;;;;;;;8.63;61.69;101660.00;4975326;28;20042;-86
2021/01/13 03:13:48;;;;;;;14.10;6.38;;;;;;;8.65;61.74;101662.56;4984012;28;20029;-86
2021/01/13 03:16:15;;;;;;;20.02;8.38;;;;;;;8.65;61.86;101657.13;4975148;28;20034;-86
2021/01/13 03:19:04;;;;;;;23.35;7.30;;;;;;;8.58;62.44;101665.91;4984868;28;20149;-84
2021/01/13 03:21:57;;;;;;;25.15;8.55;;;;;;;8.55;62.49;101668.94;4988524;28;20145;-85
2021/01/13 03:24:38;;;;;;;15.95;8.68;;;;;;;8.45;62.07;101657.41;4979753;28;20077;-83
2021/01/13 03:27:06;;;;;;;18.23;6.90;;;;;;;8.49;60.36;101656.06;4984592;28;20031;-86
2021/01/13 03:29:35;;;;;;;16.40;8.43;;;;;;;8.51;59.20;101659.47;4976630;28;20023;-84
2021/01/13 03:32:07;;;;;;;22.30;8.23;;;;;;;8.34;59.76;101663.06;4989164;28;20488;-85
2021/01/13 03:35:04;;;;;;;21.70;9.43;;;;;;;8.55;59.52;101662.69;4988517;28;20121;-84
2021/01/13 03:37:55;;;;;;;22.90;7.93;;;;;;;8.43;57.91;101672.94;4969164;28;20077;-83
2021/01/13 03:40:23;;;;;;;20.95;9.00;;;;;;;8.48;56.76;101675.19;4999159;28;20026;-82
2021/01/13 03:42:54;;;;;;;17.73;11.50;;;;;;;8.36;55.79;101667.31;4990868;28;20087;-84
2021/01/13 03:45:39;;;;;;;20.77;16.52;;;;;;;8.56;54.88;101661.69;4980973;28;20076;-86
2021/01/13 03:48:05;;;;;;;23.80;10.75;;;;;;;8.41;54.56;101672.25;4993418;28;20089;-84
2021/01/13 03:50:43;;;;;;;20.23;8.82;;;;;;;8.46;53.72;101675.34;4988222;28;20038;-83
2021/01/13 03:53:13;;;;;;;24.60;11.20;;;;;;;8.29;54.09;101668.13;4990855;28;20076;-83
2021/01/13 03:55:41;;;;;;;19.08;11.30;;;;;;;8.34;54.41;101685.63;4983430;28;20504;-85
2021/01/13 03:58:12;;;;;;;19.63;10.60;;;;;;;8.57;54.83;101676.94;4988365;28;20148;-83
2021/01/13 04:00:56;;;;;;;23.92;14.32;;;;;;;8.45;54.91;101678.22;4990041;28;20158;-85
2021/01/13 04:03:28;;;;;;;20.33;11.38;;;;;;;8.43;54.27;101672.94;4990706;28;20038;-83
2021/01/13 04:06:13;;;;;;;14.85;6.82;;;;;;;8.36;54.33;101671.91;4993462;28;20452;-82
2021/01/13 04:08:43;;;;;;;14.70;10.18;;;;;;;8.51;54.80;101670.31;4974733;28;20073;-86
2021/01/13 04:11:14;;;;;;;22.00;10.40;;;;;;;8.63;54.60;101665.44;4996610;28;20032;-83
2021/01/13 04:13:49;;;;;;;22.55;9.35;;;;;;;8.57;54.36;101663.38;4990935;28;20030;-83
2021/01/13 04:16:20;;;;;;;19.00;9.85;;;;;;;8.72;53.96;101659.03;4987944;28;20114;-84
2021/01/13 04:18:49;;;;;;;19.73;12.73;;;;;;;8.52;52.70;101658.44;4993396;28;20041;-83
2021/01/13 04:21:16;;;;;;;18.45;8.48;;;;;;;8.53;51.79;101659.31;4989845;28;20030;-81
2021/01/13 04:23:43;;;;;;;15.95;6.88;;;;;;;8.43;50.96;101659.38;4974445;28;20376;-84
2021/01/13 04:26:10;;;;;;;14.23;11.25;;;;;;;8.48;49.99;101661.63;4992951;28;20081;-84
2021/01/13 04:28:36;;;;;;;13.00;5.97;;;;;;;8.52;50.13;101668.44;4972225;28;20037;-84
2021/01/13 04:31:03;;;;;;;20.30;11.57;;;;;;;8.57;50.52;101660.66;4991434;28;20390;-85
2021/01/13 04:33:29;;;;;;;9.52;6.72;;;;;;;8.70;50.45;101654.81;4972888;28;20034;-84
2021/01/13 04:35:55;;;;;;;20.17;11.15;;;;;;;8.44;51.45;101663.00;4972093;28;21218;-84
2021/01/13 04:38:26;;;;;;;15.30;6.60;;;;;;;8.35;51.78;101656.63;4987600;28;20034;-82
2021/01/13 04:41:18;;;;;;;16.38;6.70;;;;;;;8.51;51.83;101643.22;4990641;28;20808;-80
2021/01/13 04:43:58;;;;;;;20.98;12.13;;;;;;;8.46;52.20;101650.13;4989789;28;20038;-81
2021/01/13 04:46:55;;;;;;;7.53;5.87;;;;;;;8.06;52.56;101641.56;4984516;28;20056;-82
2021/01/13 04:49:22;;;;;;;21.77;12.00;;;;;;;8.39;52.10;101618.22;4973635;28;20583;-82
2021/01/13 04:51:49;;;;;;;11.23;5.50;;;;;;;8.31;51.65;101628.16;4992703;28;20031;-81
2021/01/13 04:54:16;;;;;;;15.70;9.57;;;;;;;8.35;51.78;101627.66;4998258;28;20026;-82
2021/01/13 04:56:44;;;;;;;15.63;9.68;;;;;;;8.51;51.41;101629.66;4971500;28;20030;-83
2021/01/13 04:59:15;;;;;;;21.30;9.00;;;;;;;8.42;52.76;101630.59;4996032;28;20034;-81
2021/01/13 05:01:59;;;;;;;;;;;;;;;8.36;52.94;101625.81;4986774;28;20036;-82
2021/01/13 05:04:27;;;;;;;21.42;11.65;;;;;;;8.19;54.09;101620.31;4992055;28;19928;-82
2021/01/13 05:07:25;;;;;;;18.20;11.43;;;;;;;8.30;53.93;101621.06;4972774;28;20403;-82
2021/01/13 05:10:07;;;;;;;16.67;9.48;;;;;;;8.37;53.20;101622.09;4994074;28;20077;-82
2021/01/13 05:12:44;;;;;;;19.40;7.93;;;;;;;8.34;52.73;101617.84;4990072;28;20027;-82
2021/01/13 05:15:14;;;;;;;15.90;10.93;;;;;;;8.27;52.10;101615.97;4977167;28;20034;-81
2021/01/13 05:17:56;;;;;;;16.75;10.30;;;;;;;8.44;52.15;101622.34;4989817;28;20109;-82
2021/01/13 05:20:24;;;;;;;16.00;12.18;;;;;;;8.34;52.34;101616.97;4990402;28;20030;-81
2021/01/13 05:22:54;;;;;;;13.65;6.20;;;;;;;8.34;51.75;101611.56;4982683;28;20030;-82
2021/01/13 05:25:49;;;;;;;13.15;11.00;;;;;;;8.41;52.14;101616.19;4993850;28;20049;-85
2021/01/13 05:28:25;;;;;;;18.00;9.70;;;;;;;8.42;52.53;101617.88;4977494;28;20026;-84
2021/01/13 05:30:55;;;;;;;16.02;11.07;;;;;;;8.55;52.83;101616.59;4991306;28;20075;-82
2021/01/13 05:33:32;;;;;;;22.35;14.10;;;;;;;8.48;53.05;101612.84;4996839;28;20138;-84
2021/01/13 05:36:05;;;;;;;17.02;8.45;;;;;;;8.42;52.45;101614.34;4992180;28;20397;-82
2021/01/13 05:38:55;;;;;;;12.55;7.35;;;;;;;8.67;51.59;101628.00;4970490;28;20050;-83
2021/01/13 05:41:21;;;;;;;18.30;8.02;;;;;;;8.47;52.25;101622.84;4975496;28;20046;-83
2021/01/13 05:43:48;;;;;;;27.73;8.77;;;;;;;8.58;51.39;101624.41;4997318;28;20038;-83
2021/01/13 05:46:18;;;;;;;13.77;6.10;;;;;;;8.54;51.70;101618.47;4996425;28;20038;-83
2021/01/13 05:48:51;;;;;;;20.65;9.95;;;;;;;8.68;51.58;101619.72;4989569;28;20042;-84
2021/01/13 05:51:30;;;;;;;20.67;8.25;;;;;;;8.50;51.88;101611.69;4989029;28;20390;-83
2021/01/13 05:53:57;;;;;;;13.38;10.75;;;;;;;8.60;52.03;101619.66;4998821;28;20179;-83
2021/01/13 05:56:22;;;;;;;18.88;7.47;;;;;;;8.70;51.70;101616.84;4989480;28;20054;-84
2021/01/13 05:59:00;;;;;;;16.10;8.57;;;;;;;8.51;51.81;101613.38;4986240;28;20051;-83
2021/01/13 06:01:47;;;;;;;13.23;7.28;;;;;;;8.70;50.82;101606.81;4971356;28;20026;-86
2021/01/13 06:04:16;;;;;;;14.00;6.95;;;;;;;8.56;51.70;101600.19;4999981;28;20543;-84
2021/01/13 06:06:55;;;;;;;16.90;9.07;;;;;;;8.67;51.37;101600.91;4989122;28;20755;-82
2021/01/13 06:09:22;;;;;;;16.25;7.28;;;;;;;8.57;51.72;101595.59;4989089;28;20038;-84
2021/01/13 06:11:51;;;;;;;14.13;7.55;;;;;;;8.52;51.57;101601.50;4984335;28;20496;-85
2021/01/13 06:14:22;;;;;;;14.48;4.78;;;;;;;8.54;51.64;101595.91;4974782;28;20022;-84
2021/01/13 06:16:51;;;;;;;17.30;4.07;;;;;;;8.63;51.54;101608.50;4986936;28;20121;-82
2021/01/13 06:19:18;;;;;;;19.40;4.78;;;;;;;8.38;51.41;101602.09;4990636;28;20050;-82
2021/01/13 06:21:47;;;;;;;16.23;5.63;;;;;;;8.61;50.89;101602.41;4981782;28;20030;-84
2021/01/13 06:24:14;;;;;;;15.43;6.65;;;;;;;8.51;51.58;101604.38;4988986;28;20081;-84
2021/01/13 06:26:52;;;;;;;9.75;4.97;;;;;;;8.57;50.90;101592.88;4991912;28;20516;-82
2021/01/13 06:29:37;;;;;;;17.60;5.30;;;;;;;8.52;51.33;101585.25;4969182;28;20149;-83
2021/01/13 06:32:15;;;;;;;10.65;5.85;;;;;;;8.55;51.43;101589.50;4989206;28;20025;-84
2021/01/13 06:34:54;;;;;;;20.45;7.15;;;;;;;8.47;51.68;101589.47;4988381;28;20129;-84
2021/01/13 06:37:35;;;;;;;18.25;5.95;;;;;;;8.61;51.20;101591.56;4995674;28;20041;-83
2021/01/13 06:40:11;;;;;;;26.55;7.15;;;;;;;8.49;51.15;101601.84;4988883;28;20380;-83
2021/01/13 06:42:36;;;;;;;21.15;6.80;;;;;;;8.58;51.50;101595.44;4998985;28;20022;-83
2021/01/13 06:45:03;;;;;;;17.10;4.63;;;;;;;8.58;51.28;101594.59;4973259;28;20086;-84
2021/01/13 06:47:28;;;;;;;22.55;6.45;;;;;;;8.33;52.01;101599.03;4988944;28;20039;-84
2021/01/13 06:49:54;;;;;;;20.63;6.47;;;;;;;8.36;52.16;101572.47;4989301;28;20041;-83
2021/01/13 06:52:33;;;;;;;13.10;6.22;;;;;;;8.55;52.24;101593.03;4976434;28;20121;-85
2021/01/13 06:55:00;;;;;;;18.98;6.00;;;;;;;8.44;52.39;101606.91;4988438;28;20030;-82
2021/01/13 06:57:31;;;;;;;11.93;4.45;;;;;;;8.51;52.08;101591.69;4970954;28;20151;-82
2021/01/13 06:59:59;;;;;;;16.48;5.60;;;;;;;8.47;52.56;101574.06;4996599;28;20808;-83
2021/01/13 07:02:32;;;;;;;16.10;7.85;;;;;;;8.52;52.88;101585.25;4987472;28;20042;-82
2021/01/13 07:04:58;;;;;;;13.38;6.85;;;;;;;8.50;53.26;101590.00;4986455;28;20137;-83
2021/01/13 07:07:23;;;;;;;10.80;3.75;;;;;;;8.45;52.97;101578.81;4987562;28;20121;-83
2021/01/13 07:09:50;;;;;;;27.77;5.75;;;;;;;8.51;52.84;101580.84;4961844;28;20061;-82
2021/01/13 07:12:20;;;;;;;11.18;6.50;;;;;;;8.72;52.62;101593.09;4989450;28;21156;-83
2021/01/13 07:14:51;;;;;;;17.88;9.52;;;;;;;8.55;53.00;101593.03;4991255;28;20034;-83
2021/01/13 07:17:22;;;;;;;20.75;7.82;;;;;;;8.59;52.81;101582.75;4988264;28;20117;-82
2021/01/13 07:19:54;;;;;;;15.57;5.37;;;;;;;8.54;52.97;101595.91;4980699;28;20037;-82
2021/01/13 07:22:22;;;;;;;17.83;6.35;;;;;;;8.58;53.43;101586.47;4986582;28;20491;-81
2021/01/13 07:24:49;;;;;;;17.98;10.68;;;;;;;8.78;52.72;101587.03;4996281;28;20058;-83
2021/01/13 07:27:15;;;;;;;17.25;7.72;;;;;;;8.69;52.87;101585.31;4967244;28;20038;-82
2021/01/13 07:29:41;;;;;;;17.45;5.05;;;;;;;8.70;52.99;101589.72;4969789;28;20623;-85
2021/01/13 07:32:10;;;;;;;19.55;5.85;;;;;;;8.56;53.27;101581.19;4984694;28;20030;-83
2021/01/13 07:34:41;;;;;;;14.35;7.70;;;;;;;8.46;53.34;101575.06;4985202;28;20109;-83
2021/01/13 07:37:08;;;;;;;13.15;6.60;;;;;;;8.49;53.23;101582.84;4963655;28;20053;-82
2021/01/13 07:40:01;;;;;;;17.63;6.97;;;;;;;8.82;52.76;101582.97;4988077;28;20515;-81
2021/01/13 07:42:41;;;;;;;24.58;9.30;;;;;;;8.67;53.29;101585.47;4978380;28;20037;-82
2021/01/13 07:45:12;;;;;;;18.48;9.35;;;;;;;8.70;53.24;101577.00;4987442;28;20030;-81
2021/01/13 07:47:47;;;;;;;15.23;8.60;;;;;;;8.84;53.15;101585.50;4985248;28;20030;-82
2021/01/13 07:50:15;;;;;;;19.98;9.90;;;;;;;8.65;53.73;101583.91;4988233;28;20030;-79
2021/01/13 07:52:49;;;;;;;14.50;7.15;;;;;;;8.77;53.28;101582.59;4988453;28;20042;-83
2021/01/13 07:55:16;;;;;;;12.60;6.55;;;;;;;8.66;53.31;101583.75;4986317;28;20444;-81
2021/01/13 07:57:50;;;;;;;14.35;8.25;;;;;;;8.90;53.01;101585.69;4967559;28;20129;-83
2021/01/13 08:00:36;;;;;;;16.77;5.30;;;;;;;8.70;53.43;101582.41;4968677;28;20612;-81
2021/01/13 08:03:27;;;;;;;18.70;5.95;;;;;;;8.94;53.09;101580.75;4975326;28;20026;-86
2021/01/13 08:06:23;;;;;;;16.20;5.88;;;;;;;8.77;53.44;101588.03;4976158;28;20080;-89
2021/01/13 08:09:14;;;;;;;16.25;5.47;;;;;;;8.88;53.16;101587.72;4969873;28;20202;-88
2021/01/13 08:12:25;;;;;;;23.33;7.95;;;;;;;9.10;52.76;101590.81;4973591;28;20532;-88
2021/01/13 08:15:16;;;;;;;8.80;7.43;;;;;;;9.10;52.75;101590.81;4983674;28;20050;-86
2021/01/13 08:18:15;;;;;;;20.42;9.27;;;;;;;9.05;52.39;101576.88;4966295;28;20046;-86
2021/01/13 08:21:01;;;;;;;21.20;7.25;;;;;;;9.30;52.33;101597.59;4981401;28;20039;-86
2021/01/13 08:23:37;;;;;;;19.05;8.18;;;;;;;9.48;51.39;101556.72;4979645;28;20048;-84
2021/01/13 08:26:05;;;;;;;17.90;8.57;;;;;;;9.52;50.93;101572.66;4978552;28;20066;-87
2021/01/13 08:28:41;;;;;;;13.85;5.60;;;;;;;9.70;50.99;101577.88;4972673;28;20378;-87
2021/01/13 08:31:08;;;;;;;15.98;6.80;;;;;;;9.80;50.78;101586.69;4990202;28;20026;-87
2021/01/13 08:33:36;;;;;;;13.40;5.85;;;;;;;9.78;51.24;101591.47;4975677;28;20049;-87
2021/01/13 08:36:15;;;;;;;14.35;6.47;;;;;;;9.85;50.00;101574.28;4979017;28;20046;-86
2021/01/13 08:39:06;;;;;;;15.13;7.63;;;;;;;10.23;49.20;101591.84;4977042;28;20034;-85
2021/01/13 08:41:32;;;;;;;21.00;5.05;;;;;;;10.47;49.10;101578.19;4973649;28;20037;-86
2021/01/13 08:44:10;;;;;;;18.55;7.20;;;;;;;10.90;48.00;101580.47;4973523;28;20119;-85
2021/01/13 08:46:46;;;;;;;15.23;9.95;;;;;;;11.56;46.69;101590.84;4976948;28;20031;-83
2021/01/13 08:49:35;;;;;;;20.17;6.60;;;;;;;11.43;46.39;101578.69;4987932;28;20034;-85
2021/01/13 08:52:22;;;;;;;17.77;5.57;;;;;;;11.22;47.08;101584.00;4975149;28;20038;-88
2021/01/13 08:54:48;;;;;;;14.20;5.93;;;;;;;11.15;47.61;101581.13;4971323;28;20070;-85
2021/01/13 08:57:15;;;;;;;15.15;4.82;;;;;;;11.51;46.41;101595.97;4975848;28;20061;-85
2021/01/13 08:59:45;;;;;;;17.20;5.07;;;;;;;11.34;46.45;101577.06;4974529;28;20089;-83
2021/01/13 09:02:11;;;;;;;25.10;7.97;;;;;;;11.33;46.30;101564.47;4977754;28;20077;-84
2021/01/13 09:04:56;;;;;;;15.60;5.97;;;;;;;10.57;47.67;101576.06;4987995;28;20117;-86
2021/01/13 09:07:32;;;;;;;15.68;6.15;;;;;;;11.00;47.57;101566.59;4977502;28;20089;-86
2021/01/13 09:10:07;;;;;;;12.07;5.22;;;;;;;10.57;47.82;101567.06;4972024;28;20321;-86
2021/01/13 09:12:44;;;;;;;13.18;7.20;;;;;;;10.45;48.27;101565.78;4990073;28;20034;-85
2021/01/13 09:15:12;;;;;;;16.75;6.88;;;;;;;10.43;48.74;101586.88;4968815;28;20104;-84
2021/01/13 09:17:47;;;;;;;12.60;5.45;;;;;;;10.36;48.56;101581.28;4986686;28;20109;-86
2021/01/13 09:20:12;;;;;;;15.48;8.43;;;;;;;10.17;49.08;101572.47;4984434;28;20564;-87
2021/01/13 09:22:50;;;;;;;16.52;4.40;;;;;;;10.25;48.57;101581.63;4988346;28;20101;-89
2021/01/13 09:25:22;;;;;;;15.15;5.55;;;;;;;10.17;48.62;101583.34;4985409;28;20038;-85
2021/01/13 09:27:56;;;;;;;16.45;6.88;;;;;;;10.04;49.59;101575.75;4971117;28;20544;-85
2021/01/13 09:30:36;;;;;;;10.93;6.25;;;;;;;10.40;49.12;101590.78;4990081;28;20768;-87
2021/01/13 09:33:07;;;;;;;18.38;6.20;;;;;;;10.81;48.39;101578.81;4967938;28;20421;-84
2021/01/13 09:35:55;;;;;;;;;;;;;;;10.87;48.62;101594.44;4970470;28;20053;-86
2021/01/13 09:38:30;;;;;;;17.83;6.40;;;;;;;10.45;48.53;101563.88;4960045;28;20392;-86
2021/01/13 09:41:03;;;;;;;16.85;4.95;;;;;;;10.61;48.32;101582.00;4965647;28;20043;-86
2021/01/13 09:43:41;;;;;;;14.52;5.55;;;;;;;10.56;48.50;101589.84;4947683;28;20039;-86
2021/01/13 09:46:21;;;;;;;13.70;4.50;;;;;;;10.78;47.58;101585.47;4964870;28;20026;-83
2021/01/13 09:48:57;;;;;;;13.07;5.97;;;;;;;10.98;47.90;101596.72;4960633;28;20034;-85
2021/01/13 09:51:23;;;;;;;18.52;7.00;;;;;;;11.11;48.18;101583.38;4966509;28;20031;-83
2021/01/13 09:53:50;;;;;;;19.95;7.65;;;;;;;11.05;47.97;101572.38;4950419;28;20050;-85
2021/01/13 09:56:16;;;;;;;12.93;6.38;;;;;;;10.90;48.64;101599.50;4963904;28;20056;-84
2021/01/13 09:58:44;;;;;;;14.25;5.88;;;;;;;10.96;48.65;101595.22;4963114;28;20161;-83
2021/01/13 10:01:19;;;;;;;14.13;6.20;;;;;;;10.52;49.39;101594.81;4966264;28;20034;-83
2021/01/13 10:03:49;;;;;;;12.90;5.18;;;;;;;10.52;49.47;101592.09;4966802;28;20034;-81
2021/01/13 10:06:27;;;;;;;19.03;8.80;;;;;;;10.39;49.93;101602.66;4966080;28;20043;-82
2021/01/13 10:08:54;;;;;;;17.98;8.05;;;;;;;10.27;50.33;101599.47;4973493;28;20504;-81
2021/01/13 10:11:22;;;;;;;16.25;5.68;;;;;;;10.06;51.00;101591.88;4968134;28;20030;-85
2021/01/13 10:14:00;;;;;;;12.23;5.90;;;;;;;10.54;49.98;101583.75;4952224;28;20038;-82
2021/01/13 10:16:27;;;;;;;18.48;5.40;;;;;;;10.85;50.14;101601.94;4964403;28;20637;-86
2021/01/13 10:18:58;;;;;;;17.42;4.40;;;;;;;11.28;48.13;101591.44;4964449;28;20043;-86
2021/01/13 10:21:33;;;;;;;7.55;3.35;;;;;;;11.88;46.95;101589.69;4963772;28;20035;-82
2021/01/13 10:24:04;;;;;;;12.20;5.00;;;;;;;11.73;47.11;101577.91;4965167;28;20027;-82
2021/01/13 10:26:34;;;;;;;12.63;4.88;;;;;;;11.60;47.27;101587.56;4961153;28;20062;-81
2021/01/13 10:29:00;;;;;;;10.57;5.90;;;;;;;11.63;47.50;101589.06;4965768;28;20038;-81
2021/01/13 10:31:29;;;;;;;19.52;7.78;;;;;;;11.81;47.30;101595.00;4959782;28;20040;-80
2021/01/13 10:33:56;;;;;;;16.40;6.65;;;;;;;11.42;47.76;101596.06;4963730;28;20045;-83
2021/01/13 10:36:50;;;;;;;12.70;4.78;;;;;;;11.50;48.32;101600.59;4962234;28;21009;-83
2021/01/13 10:39:23;;;;;;;17.40;5.38;;;;;;;11.35;48.91;101605.16;4966846;28;20030;-83
2021/01/13 10:41:51;;;;;;;12.73;5.05;;;;;;;11.41;48.29;101604.41;4964123;28;20027;-85
2021/01/13 10:44:16;;;;;;;10.43;6.40;;;;;;;11.27;48.17;101606.06;4962934;28;20030;-88
2021/01/13 10:46:44;;;;;;;15.57;6.10;;;;;;;11.16;48.21;101585.56;4964914;28;20043;-81
2021/01/13 10:49:26;;;;;;;9.40;4.68;;;;;;;11.38;48.34;101583.81;4957948;28;20035;-82
2021/01/13 10:51:52;;;;;;;;;;;;;;;11.65;48.10;101595.19;4961437;28;20035;-84
2021/01/13 10:54:21;;;;;;;14.13;6.07;;;;;;;11.66;48.27;101572.34;4957308;28;19922;-84
2021/01/13 10:56:54;;;;;;;15.60;7.60;;;;;;;11.99;47.79;101561.13;4963610;28;20126;-85
2021/01/13 10:59:20;;;;;;;16.65;6.88;;;;;;;12.32;47.21;101563.47;4977467;28;20061;-85
2021/01/13 11:01:48;;;;;;;16.77;6.30;;;;;;;12.48;46.62;101576.03;4961602;28;20050;-86
2021/01/13 11:04:21;;;;;;;9.73;3.97;;;;;;;12.60;46.18;101571.78;4958679;28;20035;-87
2021/01/13 11:06:47;;;;;;;12.05;6.90;;;;;;;12.57;46.79;101560.41;4964469;28;20117;-87
2021/01/13 11:09:16;;;;;;;16.60;7.07;;;;;;;12.23;46.69;101576.34;4950100;28;20181;-84
2021/01/13 11:11:47;;;;;;;14.32;5.00;;;;;;;11.90;47.52;101551.34;4949622;28;20024;-83
2021/01/13 11:14:13;;;;;;;18.20;4.65;;;;;;;11.89;47.47;101557.81;4962460;28;20312;-85
2021/01/13 11:17:00;;;;;;;9.40;6.28;;;;;;;11.64;48.00;101533.53;4955603;28;20639;-88
2021/01/13 11:19:26;;;;;;;14.00;3.45;;;;;;;11.64;48.36;101550.72;4959924;28;20069;-87
2021/01/13 11:21:57;;;;;;;16.73;4.95;;;;;;;11.52;48.66;101537.75;4941865;28;20822;-88
2021/01/13 11:24:41;;;;;;;10.13;3.78;;;;;;;11.61;48.94;101553.00;4960143;28;20032;-83
2021/01/13 11:27:24;;;;;;;12.45;3.95;;;;;;;11.11;50.31;101547.16;4958477;28;20031;-86
2021/01/13 11:29:52;;;;;;;14.57;4.57;;;;;;;11.11;50.79;101542.53;4964549;28;20058;-87
2021/01/13 11:32:19;;;;;;;21.48;4.45;;;;;;;11.28;50.35;101532.34;4957020;28;20382;-86
2021/01/13 11:34:50;;;;;;;20.75;4.38;;;;;;;11.10;51.27;101543.56;4963498;28;20047;-86
2021/01/13 11:37:26;;;;;;;19.27;6.25;;;;;;;10.95;51.60;101531.78;4979660;28;20034;-86
2021/01/13 11:40:06;;;;;;;14.38;5.63;;;;;;;10.93;52.20;101548.28;4982335;28;20031;-87
2021/01/13 11:42:47;;;;;;;15.13;6.50;;;;;;;10.93;52.36;101551.00;4967027;28;20058;-88
2021/01/13 11:45:13;;;;;;;13.57;4.82;;;;;;;11.01;52.33;101551.97;4983610;28;20033;-84
2021/01/13 11:47:42;;;;;;;15.82;7.88;;;;;;;11.18;52.20;101552.69;4988639;28;20528;-85